Time;durP1;ratioP1;P1;durP2;ratioP2;P2;SDS_P1;SDS_P2;PMS_P1;PMS_P2;Temp;Humidity;BMP_temperature;BMP_pressure;BME280_temperature;BME280_humidity;BME280_pressure;Samples;Min_cycle;Max_cycle;Signal;HPM_P1;HPM_P2
2022/11/05 00:10:26;;;;;;;50.80;26.73;;;;;;;9.01;78.00;99785.84;5069498;28;20129;-30
2022/11/05 00:18:22;;;;;;;44.13;22.75;;;;;;;8.78;80.20;99811.16;5069131;28;20078;-31
2022/11/05 00:20:47;;;;;;;45.10;23.48;;;;;;;8.55;82.01;99803.72;5067802;28;20028;-27
2022/11/05 00:26:03;;;;;;;46.33;22.90;;;;;;;8.75;79.35;99814.25;5069585;28;20143;-27
2022/11/05 00:28:29;;;;;;;45.08;23.20;;;;;;;8.15;80.09;99824.28;5069333;28;20567;-28
2022/11/05 00:31:00;;;;;;;39.35;21.08;;;;;;;8.46;79.11;99820.94;5069194;28;20714;-28
2022/11/05 00:33:25;;;;;;;40.95;21.75;;;;;;;8.43;77.54;99827.47;5068883;28;20032;-28
2022/11/05 00:35:51;;;;;;;42.30;21.83;;;;;;;8.45;76.87;99820.09;5069076;28;20031;-28
2022/11/05 00:38:16;;;;;;;40.92;22.85;;;;;;;8.10;77.87;99822.25;5068838;28;20780;-28
2022/11/05 00:40:42;;;;;;;45.63;24.73;;;;;;;7.51;78.08;99813.34;5084576;28;20485;-28
2022/11/05 00:45:51;;;;;;;49.83;24.10;;;;;;;7.92;76.64;99812.28;5068970;28;20039;-28
2022/11/05 00:51:00;;;;;;;46.38;23.45;;;;;;;7.63;77.72;99822.31;5069007;28;20040;-30
2022/11/05 00:53:26;;;;;;;49.25;25.63;;;;;;;7.78;77.42;99815.97;5084303;28;20028;-28
2022/11/05 00:55:51;;;;;;;47.03;25.02;;;;;;;7.25;79.32;99806.19;5068646;28;20056;-27
2022/11/05 00:58:19;;;;;;;45.97;22.75;;;;;;;7.26;79.48;99807.03;5068401;28;20028;-27
2022/11/05 01:00:49;;;;;;;48.55;24.70;;;;;;;7.26;79.61;99799.06;5068325;28;20032;-32
2022/11/05 01:03:17;;;;;;;46.90;24.88;;;;;;;7.36;78.27;99786.22;5068490;28;20036;-29
2022/11/05 01:05:45;;;;;;;45.80;24.50;;;;;;;7.35;79.61;99800.50;5066967;28;20048;-28
2022/11/05 01:08:12;;;;;;;41.92;23.88;;;;;;;7.08;80.25;99810.28;5068320;28;20029;-29
2022/11/05 01:10:49;;;;;;;45.30;24.23;;;;;;;7.44;78.49;99792.13;5068318;28;20060;-29
2022/11/05 01:13:21;;;;;;;48.95;24.75;;;;;;;7.46;78.86;99789.28;5068109;28;20119;-27
2022/11/05 01:15:47;;;;;;;49.22;26.38;;;;;;;7.44;79.95;99780.72;5068231;28;20127;-28
2022/11/05 01:18:13;;;;;;;52.30;27.05;;;;;;;6.90;81.88;99779.03;5068122;28;20071;-28
2022/11/05 01:20:38;;;;;;;46.92;24.52;;;;;;;6.92;82.88;99792.91;5083431;28;20056;-28
2022/11/05 01:23:04;;;;;;;51.97;25.15;;;;;;;7.09;82.28;99794.16;5066542;28;20039;-28
2022/11/05 01:25:29;;;;;;;46.92;26.08;;;;;;;7.14;81.72;99799.66;5083614;28;20078;-28
2022/11/05 01:27:55;;;;;;;49.55;25.20;;;;;;;7.51;80.15;99792.13;5067331;28;20534;-28
2022/11/05 01:30:20;;;;;;;45.42;27.50;;;;;;;7.60;79.10;99788.25;5067928;28;20078;-27
2022/11/05 01:32:46;;;;;;;50.13;27.58;;;;;;;7.67;78.92;99795.38;5067865;28;20028;-30
2022/11/05 01:35:14;;;;;;;51.72;25.58;;;;;;;7.86;78.04;99805.13;5067899;28;20064;-28
2022/11/05 01:37:39;;;;;;;48.10;24.63;;;;;;;7.77;77.71;99779.84;5067903;28;20031;-27
2022/11/05 01:40:07;;;;;;;50.35;27.17;;;;;;;7.99;77.39;99788.38;5067821;28;20024;-29
2022/11/05 01:42:33;;;;;;;53.77;25.30;;;;;;;7.63;78.62;99787.81;5067433;28;20086;-28
2022/11/05 01:45:13;;;;;;;50.28;25.85;;;;;;;7.31;79.91;99791.31;5067768;28;20023;-27
2022/11/05 01:48:17;;;;;;;50.63;25.77;;;;;;;7.26;80.09;99788.47;5067618;28;20028;-29
2022/11/05 01:51:03;;;;;;;46.72;25.65;;;;;;;7.56;78.92;99772.91;5035754;28;20033;-29
2022/11/05 01:53:46;;;;;;;47.15;26.77;;;;;;;7.29;79.94;99769.47;5067645;28;20028;-26
2022/11/05 01:56:23;;;;;;;47.45;25.63;;;;;;;7.46;79.44;99773.38;5067503;28;20035;-28
2022/11/05 01:59:01;;;;;;;49.05;27.38;;;;;;;7.49;79.59;99772.94;5067361;28;20035;-34
2022/11/05 02:01:27;;;;;;;46.03;24.98;;;;;;;7.57;79.39;99766.59;5067583;28;20029;-27
2022/11/05 02:03:57;;;;;;;53.75;26.90;;;;;;;7.46;79.57;99768.06;5067240;28;20036;-27
2022/11/05 02:06:24;;;;;;;52.90;26.38;;;;;;;7.44;80.17;99759.47;5065185;28;20052;-29
2022/11/05 02:08:58;;;;;;;54.67;26.73;;;;;;;7.34;79.98;99764.38;5067410;28;20037;-27
2022/11/05 02:11:24;;;;;;;50.92;27.08;;;;;;;7.52;79.60;99758.44;5065487;28;20036;-28
2022/11/05 02:13:49;;;;;;;46.53;26.10;;;;;;;7.64;78.73;99752.31;5067457;28;20061;-27
2022/11/05 02:16:27;;;;;;;51.17;26.58;;;;;;;7.83;78.52;99758.59;5066846;28;20032;-28
2022/11/05 02:19:03;;;;;;;52.83;26.43;;;;;;;7.57;78.74;99742.72;5067236;28;20020;-26
2022/11/05 02:21:29;;;;;;;49.72;26.95;;;;;;;7.47;79.64;99756.41;5067116;28;20024;-27
2022/11/05 02:24:00;;;;;;;45.53;25.70;;;;;;;7.65;78.51;99740.66;5067031;28;20381;-27
2022/11/05 02:26:47;;;;;;;49.47;25.80;;;;;;;7.63;78.02;99739.25;5066742;28;20025;-29
2022/11/05 02:29:37;;;;;;;48.22;26.20;;;;;;;7.43;79.35;99741.91;5067172;28;20024;-25
2022/11/05 02:32:05;;;;;;;45.95;26.27;;;;;;;7.35;79.24;99745.59;5066949;28;20456;-27
2022/11/05 02:34:30;;;;;;;;;;;;;;;7.54;78.80;99743.97;5067354;28;20032;-28
2022/11/05 02:37:05;;;;;;;48.00;25.98;;;;;;;7.71;78.13;99735.56;5065506;28;19912;-29
2022/11/05 02:39:39;;;;;;;48.28;25.60;;;;;;;7.52;78.67;99742.50;5065595;28;20032;-27
2022/11/05 02:42:07;;;;;;;46.33;25.42;;;;;;;7.14;79.82;99743.97;5065083;28;20124;-27
2022/11/05 02:44:43;;;;;;;;;;;;;;;6.98;80.58;99736.44;5067105;28;20103;-27
2022/11/05 02:47:27;;;;;;;48.53;25.85;;;;;;;7.38;79.32;99739.09;5066959;28;20011;-26
2022/11/05 02:50:31;;;;;;;49.35;26.25;;;;;;;7.42;78.54;99742.97;5067215;28;20808;-27
2022/11/05 02:53:21;;;;;;;47.20;25.20;;;;;;;7.49;78.94;99746.41;5035250;28;20705;-27
2022/11/05 02:55:52;;;;;;;48.05;25.83;;;;;;;7.36;78.53;99736.63;5067110;28;20824;-26
2022/11/05 02:58:18;;;;;;;48.17;25.85;;;;;;;7.64;78.20;99754.97;5066415;28;20039;-27
2022/11/05 03:00:57;;;;;;;48.38;26.05;;;;;;;7.54;78.59;99743.97;5066807;28;20111;-26
2022/11/05 03:03:41;;;;;;;51.97;27.98;;;;;;;7.13;80.17;99752.97;5066679;28;20123;-28
2022/11/05 03:06:10;;;;;;;49.05;25.95;;;;;;;7.29;79.43;99757.03;5066625;28;20074;-29
2022/11/05 03:09:07;;;;;;;49.20;27.23;;;;;;;7.58;78.03;99742.53;5065016;28;20307;-27
2022/11/05 03:11:58;;;;;;;49.63;26.27;;;;;;;7.64;76.59;99739.03;5079632;28;20071;-26
2022/11/05 03:14:49;;;;;;;48.20;26.92;;;;;;;7.31;77.45;99732.94;5066314;28;20024;-26
2022/11/05 03:17:17;;;;;;;51.58;26.73;;;;;;;7.36;77.83;99759.69;5064357;28;20037;-27
2022/11/05 03:19:42;;;;;;;;;;;;;;;7.51;77.61;99749.66;5067161;28;20695;-28
2022/11/05 03:22:14;;;;;;;49.97;28.15;;;;;;;7.24;78.34;99744.38;5066381;28;20009;-29
2022/11/05 03:24:48;;;;;;;54.83;29.27;;;;;;;7.09;79.40;99754.41;5066565;28;20024;-27
2022/11/05 03:27:22;;;;;;;53.83;27.23;;;;;;;7.32;78.63;99753.16;5082283;28;20036;-26
2022/11/05 03:29:57;;;;;;;50.70;27.38;;;;;;;6.54;80.78;99737.78;5066577;28;20577;-26
2022/11/05 03:32:25;;;;;;;45.45;27.13;;;;;;;6.61;81.30;99734.13;5064509;28;20147;-26
2022/11/05 03:34:59;;;;;;;51.72;28.45;;;;;;;6.84;79.65;99720.53;5066578;28;20122;-29
2022/11/05 03:37:28;;;;;;;52.67;26.98;;;;;;;6.91;79.86;99711.78;5066362;28;20029;-30
2022/11/05 03:39:58;;;;;;;47.88;26.42;;;;;;;6.95;79.90;99735.00;5066408;28;20025;-26
2022/11/05 03:42:28;;;;;;;51.75;27.35;;;;;;;6.58;80.70;99723.97;5064798;28;20483;-26
2022/11/05 03:44:57;;;;;;;49.70;27.70;;;;;;;7.04;78.37;99723.16;5066773;28;20036;-26
2022/11/05 03:47:28;;;;;;;53.85;26.15;;;;;;;7.08;77.79;99738.69;5066003;28;20079;-30
2022/11/05 03:50:07;;;;;;;46.83;27.67;;;;;;;7.00;76.73;99721.13;5066523;28;20098;-28
2022/11/05 03:52:40;;;;;;;52.67;26.40;;;;;;;6.72;77.33;99738.06;5087172;28;20036;-28
2022/11/05 03:55:06;;;;;;;54.58;28.42;;;;;;;6.71;77.00;99709.91;5071791;28;20031;-27
2022/11/05 03:57:36;;;;;;;52.88;28.40;;;;;;;6.80;75.76;99723.78;5089730;28;20055;-27
2022/11/05 04:00:05;;;;;;;49.42;28.52;;;;;;;6.54;76.56;99743.09;5090056;28;20524;-28
2022/11/05 04:02:31;;;;;;;48.58;27.17;;;;;;;5.86;79.48;99730.59;5089758;28;20797;-26
2022/11/05 04:04:57;;;;;;;45.67;26.50;;;;;;;5.61;80.15;99706.44;5089983;28;20045;-28
2022/11/05 04:17:05;;;;;;;43.03;24.33;;;;;;;5.60;78.40;99726.81;5088822;28;20038;-26
2022/11/05 04:18:20;;;;;;;41.63;22.58;;;;;;;5.39;77.24;99716.28;5089201;28;20050;-27
2022/11/05 04:26:13;;;;;;;42.60;22.10;;;;;;;5.22;76.13;99735.09;5089669;28;20085;-26
2022/11/05 04:31:22;;;;;;;43.80;22.92;;;;;;;4.76;76.29;99740.81;5089541;28;20113;-27
2022/11/05 04:33:48;;;;;;;43.38;22.83;;;;;;;4.81;77.30;99742.88;5089706;28;20856;-27
2022/11/05 04:36:13;;;;;;;51.20;24.60;;;;;;;5.08;77.91;99753.69;5088998;28;20028;-25
2022/11/05 04:38:39;;;;;;;53.47;25.35;;;;;;;4.76;76.83;99726.75;5087740;28;20039;-27
2022/11/05 04:41:15;;;;;;;52.50;25.40;;;;;;;5.00;77.96;99738.75;5089175;28;20028;-27
2022/11/05 04:43:41;;;;;;;61.05;26.52;;;;;;;5.27;78.38;99744.25;5071083;28;20040;-28
2022/11/05 04:46:07;;;;;;;54.25;27.35;;;;;;;5.46;78.57;99766.59;5089008;28;20097;-27
2022/11/05 04:48:32;;;;;;;52.65;25.52;;;;;;;5.28;79.55;99752.00;5070574;28;20734;-27
2022/11/05 04:50:58;;;;;;;49.78;25.77;;;;;;;5.23;79.57;99757.03;5089092;28;20024;-28
2022/11/05 04:53:23;;;;;;;51.20;24.40;;;;;;;5.33;80.41;99743.50;5088858;28;20028;-26
2022/11/05 04:55:48;;;;;;;43.17;23.38;;;;;;;4.93;82.57;99753.75;5089179;28;20488;-28
2022/11/05 04:58:15;;;;;;;40.40;24.63;;;;;;;5.34;81.58;99775.03;5088537;28;20479;-27
2022/11/05 05:00:41;;;;;;;40.88;25.55;;;;;;;5.77;79.76;99779.41;5088760;28;20028;-27
2022/11/05 05:03:06;;;;;;;60.70;22.67;;;;;;;5.79;79.61;99788.78;5086102;28;20094;-26
2022/11/05 05:05:31;;;;;;;41.35;24.33;;;;;;;5.84;79.98;99780.25;5088694;28;20044;-29
2022/11/05 05:08:01;;;;;;;39.97;25.10;;;;;;;5.58;80.06;99792.31;5088523;28;20052;-26
2022/11/05 05:10:26;;;;;;;37.65;23.73;;;;;;;5.34;80.04;99763.66;5088358;28;20032;-30
2022/11/05 05:12:52;;;;;;;45.63;29.48;;;;;;;5.63;78.75;99797.81;5088431;28;20028;-27
2022/11/05 05:15:17;;;;;;;49.00;29.77;;;;;;;5.34;79.47;99790.09;5070501;28;20032;-27
2022/11/05 05:17:43;;;;;;;48.67;31.15;;;;;;;5.64;79.39;99812.72;5088523;28;20109;-26
2022/11/05 05:22:53;;;;;;;40.58;25.67;;;;;;;5.47;80.34;99821.91;5088516;28;20043;-27
2022/11/05 05:25:19;;;;;;;69.40;32.72;;;;;;;5.43;80.77;99789.78;5088346;28;20519;-26
2022/11/05 05:27:44;;;;;;;132.02;52.80;;;;;;;5.51;80.06;99802.00;5087122;28;20036;-27
2022/11/05 05:30:10;;;;;;;73.63;36.13;;;;;;;5.14;81.59;99816.34;5088197;28;20062;-28
2022/11/05 05:32:35;;;;;;;68.38;31.50;;;;;;;5.32;80.56;99806.16;5069810;28;20538;-27
2022/11/05 05:35:01;;;;;;;75.97;35.22;;;;;;;5.91;79.27;99818.16;5087996;28;20020;-27
2022/11/05 05:37:26;;;;;;;211.13;70.47;;;;;;;6.19;77.88;99825.25;5069537;28;20096;-25
2022/11/05 05:39:52;;;;;;;287.50;101.70;;;;;;;5.99;78.35;99801.34;5087723;28;20036;-28
2022/11/05 05:42:20;;;;;;;243.07;92.07;;;;;;;6.14;78.57;99822.41;5069478;28;20502;-27
2022/11/05 05:44:45;;;;;;;212.55;77.50;;;;;;;6.03;80.01;99829.06;5087919;28;20079;-26
2022/11/05 05:47:12;;;;;;;178.52;68.28;;;;;;;5.99;80.12;99841.88;5088018;28;20068;-27
2022/11/05 05:49:38;;;;;;;141.57;56.83;;;;;;;6.13;78.93;99810.16;5088149;28;20070;-27
2022/11/05 05:52:04;;;;;;;145.05;57.35;;;;;;;6.23;79.47;99827.34;5087727;28;20056;-27
2022/11/05 05:54:30;;;;;;;132.80;55.60;;;;;;;6.07;79.61;99818.88;5087437;28;20488;-29
2022/11/05 05:56:56;;;;;;;93.95;41.92;;;;;;;5.84;81.72;99833.19;5069368;28;20041;-28
2022/11/05 05:59:22;;;;;;;93.15;42.25;;;;;;;6.19;79.82;99827.91;5087819;28;20154;-29
2022/11/05 06:01:47;;;;;;;83.70;39.60;;;;;;;5.78;81.79;99839.25;5087726;28;20110;-27
2022/11/05 06:04:13;;;;;;;67.47;32.70;;;;;;;5.83;81.66;99842.13;5087628;28;20077;-28
2022/11/05 06:06:38;;;;;;;75.18;36.97;;;;;;;6.31;79.88;99834.28;5087450;28;20482;-27
2022/11/05 06:09:03;;;;;;;75.03;39.03;;;;;;;6.29;81.42;99852.19;5087194;28;20044;-30
2022/11/05 06:11:29;;;;;;;84.43;40.45;;;;;;;6.51;81.02;99839.69;5087504;28;20028;-27
2022/11/05 06:13:54;;;;;;;73.10;38.53;;;;;;;6.75;81.79;99856.91;5087202;28;20024;-27
2022/11/05 06:16:20;;;;;;;68.45;35.88;;;;;;;7.09;81.06;99854.31;5087153;28;20895;-27
2022/11/05 06:18:46;;;;;;;78.13;43.45;;;;;;;7.11;81.36;99844.31;5087281;28;20031;-27
2022/11/05 06:21:14;;;;;;;138.25;65.25;;;;;;;7.22;81.36;99849.88;5087309;28;20519;-26
2022/11/05 06:23:40;;;;;;;;;;;;;;;7.24;82.49;99870.88;5087422;28;20116;-27
2022/11/05 06:26:08;;;;;;;110.65;55.92;;;;;;;7.36;82.15;99857.84;5069091;28;19912;-26
2022/11/05 06:28:34;;;;;;;87.35;40.60;;;;;;;7.29;82.78;99876.38;5087316;28;20036;-28
2022/11/05 06:31:02;;;;;;;78.55;38.00;;;;;;;7.60;80.45;99873.16;5068774;28;20465;-28
2022/11/05 06:33:28;;;;;;;75.03;35.00;;;;;;;7.42;80.56;99846.44;5087196;28;20089;-28
2022/11/05 06:35:53;;;;;;;68.15;34.88;;;;;;;7.67;80.58;99859.88;5085653;28;20025;-28
2022/11/05 06:38:19;;;;;;;80.28;40.22;;;;;;;7.80;80.18;99875.78;5086537;28;20032;-29
2022/11/05 06:40:45;;;;;;;68.70;37.25;;;;;;;7.88;79.31;99877.44;5087109;28;20407;-28
2022/11/05 06:43:10;;;;;;;75.82;39.75;;;;;;;8.02;77.73;99852.50;5087017;28;20024;-27
2022/11/05 06:45:36;;;;;;;98.78;42.08;;;;;;;8.33;77.37;99874.91;5068812;28;20046;-31
2022/11/05 06:48:01;;;;;;;90.20;42.22;;;;;;;8.24;78.17;99870.84;5087100;28;20060;-27
2022/11/05 06:50:27;;;;;;;85.32;42.05;;;;;;;8.38;77.66;99874.28;5086660;28;20032;-26
2022/11/05 06:52:57;;;;;;;72.15;39.92;;;;;;;8.69;76.74;99852.31;5086648;28;20874;-27
2022/11/05 06:55:24;;;;;;;66.28;39.20;;;;;;;8.66;77.81;99847.41;5068719;28;20040;-30
2022/11/05 06:57:49;;;;;;;61.22;35.50;;;;;;;9.03;76.97;99847.63;5086662;28;20032;-28
2022/11/05 07:00:16;;;;;;;53.22;33.45;;;;;;;9.36;76.33;99866.06;5086559;28;20084;-30
2022/11/05 07:02:41;;;;;;;60.30;35.65;;;;;;;9.49;76.08;99859.00;5086690;28;20023;-28
2022/11/05 07:05:09;;;;;;;56.22;34.30;;;;;;;9.69;75.57;99864.19;5068271;28;20087;-28
2022/11/05 07:07:36;;;;;;;74.82;35.17;;;;;;;9.77;75.77;99855.91;5068483;28;20384;-28
2022/11/05 07:10:01;;;;;;;58.45;35.25;;;;;;;10.01;75.19;99857.72;5086970;28;20036;-27
2022/11/05 07:12:26;;;;;;;63.47;37.08;;;;;;;10.09;74.88;99858.47;5068297;28;20462;-28
2022/11/05 07:14:52;;;;;;;56.92;34.85;;;;;;;10.18;75.00;99859.81;5087023;28;20553;-27
2022/11/05 07:17:17;;;;;;;62.38;36.72;;;;;;;10.34;74.21;99837.94;5086706;28;20024;-28
2022/11/05 07:19:43;;;;;;;58.95;35.83;;;;;;;10.39;74.62;99830.06;5086473;28;20042;-31
2022/11/05 07:22:08;;;;;;;62.10;38.53;;;;;;;10.62;74.51;99852.56;5086683;28;20750;-27
2022/11/05 07:24:34;;;;;;;58.88;35.58;;;;;;;11.03;72.97;99851.00;5086500;28;20028;-28
2022/11/05 07:26:59;;;;;;;56.80;35.28;;;;;;;10.80;73.20;99833.84;5090102;28;20494;-28
2022/11/05 07:29:24;;;;;;;63.70;38.60;;;;;;;11.22;72.27;99852.56;5090474;28;20393;-25
2022/11/05 07:31:50;;;;;;;63.03;40.58;;;;;;;11.05;73.84;99835.56;5072052;28;20032;-29
2022/11/05 07:34:15;;;;;;;65.55;39.30;;;;;;;11.32;73.46;99848.53;5073077;28;20040;-30
2022/11/05 07:36:41;;;;;;;69.85;38.80;;;;;;;11.43;73.07;99845.06;5070214;28;20472;-28
2022/11/05 07:39:06;;;;;;;60.75;38.03;;;;;;;11.45;72.83;99838.44;5070116;28;20066;-28
2022/11/05 07:41:31;;;;;;;61.03;37.30;;;;;;;11.87;71.40;99840.25;5069989;28;20024;-28
2022/11/05 07:43:57;;;;;;;65.15;38.75;;;;;;;12.00;70.07;99828.53;5069936;28;20078;-27
2022/11/05 07:46:22;;;;;;;60.70;37.75;;;;;;;12.08;70.92;99830.03;5067955;28;20032;-30
2022/11/05 07:48:48;;;;;;;64.30;39.45;;;;;;;12.23;70.13;99849.06;5051629;28;20036;-28
2022/11/05 07:51:13;;;;;;;69.78;39.92;;;;;;;12.06;71.13;99823.03;5069373;28;20107;-29
2022/11/05 07:53:38;;;;;;;66.63;40.45;;;;;;;12.50;70.12;99827.13;5069449;28;20413;-28
2022/11/05 07:56:04;;;;;;;73.22;41.67;;;;;;;12.79;68.49;99823.44;5084908;28;20016;-29
2022/11/05 07:58:30;;;;;;;65.45;40.45;;;;;;;12.82;68.70;99819.47;5109686;28;20027;-27
2022/11/05 08:00:56;;;;;;;65.13;41.33;;;;;;;12.84;68.50;99825.38;5110094;28;20031;-28
2022/11/05 08:03:22;;;;;;;74.97;45.47;;;;;;;12.93;68.89;99826.59;5110042;28;20035;-33
2022/11/05 08:05:47;;;;;;;69.47;38.17;;;;;;;13.07;68.53;99809.19;5109616;28;20050;-31
2022/11/05 08:08:17;;;;;;;67.90;38.25;;;;;;;13.36;68.10;99813.72;5109936;28;20035;-28
2022/11/05 08:10:43;;;;;;;71.72;41.33;;;;;;;13.62;67.19;99823.78;5109959;28;20039;-30
2022/11/05 08:13:10;;;;;;;64.03;38.30;;;;;;;13.55;67.67;99803.59;5082042;28;20032;-27
2022/11/05 08:15:35;;;;;;;58.90;34.88;;;;;;;13.35;68.93;99810.22;5089428;28;20020;-27
2022/11/05 08:18:03;;;;;;;59.00;35.25;;;;;;;13.65;68.76;99819.81;5089316;28;20082;-27
2022/11/05 08:20:29;;;;;;;59.13;39.55;;;;;;;13.74;68.02;99793.41;5076246;28;20135;-26
2022/11/05 08:22:55;;;;;;;59.92;36.45;;;;;;;14.20;67.24;99802.88;5089529;28;20525;-27
2022/11/05 08:25:21;;;;;;;58.35;36.00;;;;;;;14.09;67.29;99811.84;5089037;28;20399;-27
2022/11/05 08:27:47;;;;;;;59.03;36.05;;;;;;;14.04;67.48;99799.19;5089147;28;20028;-30
2022/11/05 08:30:13;;;;;;;56.53;34.55;;;;;;;14.21;67.29;99803.69;5088860;28;20024;-29
2022/11/05 08:32:38;;;;;;;57.55;36.83;;;;;;;14.38;67.46;99799.06;5088853;28;20107;-28
2022/11/05 08:35:04;;;;;;;60.22;35.28;;;;;;;14.83;67.06;99799.84;5089257;28;20027;-29
2022/11/05 08:37:29;;;;;;;59.10;36.90;;;;;;;15.01;67.62;99801.34;5070573;28;20028;-31
2022/11/05 08:39:55;;;;;;;55.33;35.50;;;;;;;14.84;67.90;99796.91;5089220;28;20464;-29
2022/11/05 08:42:20;;;;;;;57.97;36.42;;;;;;;15.02;67.17;99798.44;5087756;28;20027;-28
2022/11/05 08:44:46;;;;;;;56.28;34.88;;;;;;;15.33;65.28;99792.50;5070835;28;20445;-28
2022/11/05 08:47:11;;;;;;;70.47;43.45;;;;;;;15.50;64.83;99803.91;5088701;28;20388;-27
2022/11/05 08:49:36;;;;;;;1195.75;603.28;;;;;;;15.48;65.49;99800.66;5070812;28;20036;-27
2022/11/05 08:52:02;;;;;;;302.17;144.13;;;;;;;15.50;65.24;99806.59;5088548;28;20024;-31
2022/11/05 08:54:28;;;;;;;547.17;229.55;;;;;;;15.58;64.64;99795.38;5088405;28;20484;-29
2022/11/05 08:56:53;;;;;;;84.25;44.38;;;;;;;16.04;62.48;99802.94;5101989;28;20517;-28
2022/11/05 08:59:19;;;;;;;48.30;30.83;;;;;;;15.91;61.80;99804.19;5088553;28;20038;-27
2022/11/05 09:01:44;;;;;;;195.52;77.95;;;;;;;15.88;62.40;99798.56;5087841;28;20111;-26
2022/11/05 09:04:10;;;;;;;669.10;303.88;;;;;;;15.96;63.15;99790.78;5088486;28;20028;-27
2022/11/05 09:06:35;;;;;;;71.18;39.90;;;;;;;16.29;61.41;99788.78;5088041;28;20512;-32
2022/11/05 09:09:01;;;;;;;189.23;77.38;;;;;;;16.14;62.49;99780.66;5088203;28;20575;-30
2022/11/05 09:11:26;;;;;;;66.25;34.22;;;;;;;16.24;62.12;99786.91;5088418;28;20032;-27
2022/11/05 09:13:51;;;;;;;173.82;72.05;;;;;;;16.42;60.56;99788.28;5088215;28;20028;-27
2022/11/05 09:16:20;;;;;;;53.55;32.25;;;;;;;16.70;59.70;99772.75;5088222;28;20036;-29
2022/11/05 09:18:46;;;;;;;89.78;46.15;;;;;;;16.82;60.15;99778.72;5069539;28;20491;-28
2022/11/05 09:21:12;;;;;;;48.75;32.33;;;;;;;16.86;60.10;99773.63;5087958;28;20401;-26
2022/11/05 09:23:37;;;;;;;57.60;35.17;;;;;;;16.90;60.78;99773.88;5088059;28;20020;-26
2022/11/05 09:26:03;;;;;;;72.78;40.20;;;;;;;17.05;59.86;99768.50;5088333;28;20552;-27
2022/11/05 09:28:30;;;;;;;178.20;80.30;;;;;;;16.92;60.84;99771.72;5087743;28;20032;-28
2022/11/05 09:30:56;;;;;;;399.17;156.85;;;;;;;16.34;62.56;99747.63;5069511;28;20114;-27
2022/11/05 09:33:24;;;;;;;328.17;130.18;;;;;;;16.42;63.09;99766.75;5088232;28;20119;-27
2022/11/05 09:35:50;;;;;;;269.50;110.10;;;;;;;16.50;62.88;99767.31;5088199;28;20047;-27
2022/11/05 09:38:16;;;;;;;242.95;89.68;;;;;;;16.62;62.36;99775.97;5086788;28;20539;-30
2022/11/05 09:40:52;;;;;;;44.72;30.15;;;;;;;16.62;60.49;99751.75;5086902;28;20043;-28
2022/11/05 09:43:21;;;;;;;172.43;70.85;;;;;;;17.23;59.62;99759.88;5068979;28;20459;-27
2022/11/05 09:45:55;;;;;;;58.50;34.15;;;;;;;17.61;58.73;99725.34;5068952;28;20066;-26
2022/11/05 09:48:26;;;;;;;149.63;62.45;;;;;;;18.01;58.36;99755.19;5087367;28;20046;-27
2022/11/05 09:50:52;;;;;;;68.05;36.30;;;;;;;18.06;56.57;99739.78;5069396;28;20032;-27
2022/11/05 09:53:20;;;;;;;212.95;83.45;;;;;;;18.09;57.26;99753.81;5087598;28;20036;-28
2022/11/05 09:55:50;;;;;;;;;;;;;;;17.91;56.62;99756.03;5069884;28;20083;-28
2022/11/05 09:58:19;;;;;;;50.53;29.98;;;;;;;17.99;55.91;99733.88;5086974;28;19916;-28
2022/11/05 10:00:51;;;;;;;42.58;27.35;;;;;;;18.34;55.29;99753.69;5087455;28;20111;-29
2022/11/05 10:03:25;;;;;;;45.38;27.35;;;;;;;18.82;54.83;99751.25;5087493;28;20043;-27
2022/11/05 10:05:54;;;;;;;52.75;28.35;;;;;;;18.77;54.26;99743.16;5087358;28;20052;-28
2022/11/05 10:08:24;;;;;;;38.17;24.95;;;;;;;18.85;54.45;99745.28;5087061;28;20123;-28
2022/11/05 10:10:53;;;;;;;48.53;28.85;;;;;;;18.45;55.21;99741.75;5087374;28;20031;-28
2022/11/05 10:13:44;;;;;;;88.10;44.03;;;;;;;18.99;54.94;99733.84;5069104;28;20030;-28
2022/11/05 10:16:27;;;;;;;54.58;29.58;;;;;;;19.47;52.41;99734.75;5087234;28;20043;-28
2022/11/05 10:19:20;;;;;;;104.10;46.50;;;;;;;19.49;51.86;99712.81;5087171;28;20036;-29
2022/11/05 10:21:46;;;;;;;46.78;26.40;;;;;;;19.59;51.19;99707.28;5087376;28;20407;-27
2022/11/05 10:24:15;;;;;;;42.50;25.80;;;;;;;19.23;52.41;99696.88;5069002;28;20039;-27
2022/11/05 10:26:42;;;;;;;48.50;28.35;;;;;;;19.57;51.72;99720.31;5087003;28;20738;-26
2022/11/05 10:29:12;;;;;;;36.75;24.10;;;;;;;19.83;50.63;99720.84;5068836;28;20032;-27
2022/11/05 10:31:37;;;;;;;83.47;39.25;;;;;;;19.85;51.10;99704.34;5086648;28;20473;-27
2022/11/05 10:34:06;;;;;;;87.38;42.58;;;;;;;20.09;50.29;99698.91;5086833;28;20069;-28
2022/11/05 10:36:34;;;;;;;44.10;27.17;;;;;;;19.53;51.65;99694.13;5068410;28;20036;-28
2022/11/05 10:39:14;;;;;;;46.83;28.15;;;;;;;19.62;51.97;99706.72;5086708;28;20027;-28
2022/11/05 10:42:04;;;;;;;40.42;26.85;;;;;;;19.18;52.85;99699.59;5068353;28;20028;-27
2022/11/05 10:44:38;;;;;;;40.80;26.83;;;;;;;20.09;51.34;99711.63;5086638;28;20085;-27
2022/11/05 10:47:25;;;;;;;42.15;26.60;;;;;;;20.35;50.81;99715.59;5086953;28;20047;-29
2022/11/05 10:50:08;;;;;;;41.40;26.60;;;;;;;20.09;51.20;99695.41;5068353;28;20589;-28
2022/11/05 10:52:52;;;;;;;41.58;25.88;;;;;;;20.16;51.63;99690.41;5086724;28;20074;-28
2022/11/05 10:55:23;;;;;;;38.85;24.67;;;;;;;20.30;51.23;99696.72;5086760;28;20095;-28
2022/11/05 10:57:49;;;;;;;38.25;24.50;;;;;;;20.40;50.77;99679.53;5086770;28;20032;-27
2022/11/05 11:00:18;;;;;;;50.13;28.00;;;;;;;20.50;51.29;99681.28;5087261;28;20545;-29
2022/11/05 11:03:00;;;;;;;36.50;23.90;;;;;;;20.18;51.15;99671.97;5091059;28;20075;-27
2022/11/05 11:05:28;;;;;;;39.75;23.67;;;;;;;20.61;50.47;99669.19;5090960;28;20527;-30
2022/11/05 11:07:58;;;;;;;48.63;26.85;;;;;;;20.55;50.55;99683.88;5090964;28;20046;-29
2022/11/05 11:10:25;;;;;;;41.92;27.52;;;;;;;20.60;50.08;99667.59;5090208;28;20036;-29
2022/11/05 11:12:51;;;;;;;37.42;24.17;;;;;;;21.00;49.64;99666.13;5089168;28;20036;-29
2022/11/05 11:15:24;;;;;;;40.88;25.60;;;;;;;20.67;50.06;99670.72;5088958;28;20085;-29
2022/11/05 11:17:50;;;;;;;42.08;25.85;;;;;;;20.58;50.05;99665.19;5090484;28;20480;-27
2022/11/05 11:20:28;;;;;;;35.78;23.70;;;;;;;21.22;49.11;99662.72;5090265;28;20032;-28
2022/11/05 11:23:13;;;;;;;33.53;22.05;;;;;;;20.93;48.96;99660.28;5090289;28;20040;-27
2022/11/05 11:25:46;;;;;;;53.78;26.50;;;;;;;20.86;49.93;99647.13;5090348;28;20032;-27
2022/11/05 11:28:25;;;;;;;31.35;19.20;;;;;;;21.04;48.59;99644.63;5090800;28;20050;-27
2022/11/05 11:31:12;;;;;;;42.35;24.33;;;;;;;20.66;50.00;99652.88;5073409;28;20089;-27
2022/11/05 11:33:40;;;;;;;33.47;23.88;;;;;;;20.67;50.36;99640.91;5071866;28;20036;-30
2022/11/05 11:36:09;;;;;;;31.45;22.33;;;;;;;21.50;48.58;99643.78;5089941;28;20107;-26
2022/11/05 11:38:35;;;;;;;30.83;22.42;;;;;;;22.14;47.16;99648.41;5089782;28;20035;-28
2022/11/05 11:41:10;;;;;;;35.60;23.83;;;;;;;21.89;47.46;99647.06;5090793;28;20445;-27
2022/11/05 11:43:39;;;;;;;48.70;28.77;;;;;;;21.56;48.23;99650.72;5090286;28;20503;-26
2022/11/05 11:46:13;;;;;;;39.03;25.48;;;;;;;22.02;47.23;99640.81;5090153;28;20067;-29
2022/11/05 11:48:40;;;;;;;41.42;25.98;;;;;;;21.75;48.74;99620.75;5089868;28;20032;-30
2022/11/05 11:51:30;;;;;;;41.38;25.50;;;;;;;21.72;47.73;99620.53;5072126;28;20077;-28
2022/11/05 11:53:58;;;;;;;39.30;24.58;;;;;;;21.73;47.79;99616.75;5090236;28;20031;-27
2022/11/05 11:56:23;;;;;;;37.70;23.98;;;;;;;22.43;46.25;99624.41;5071342;28;20035;-27
2022/11/05 11:58:55;;;;;;;42.58;27.60;;;;;;;22.19;46.96;99612.97;5089693;28;20411;-31
2022/11/05 12:01:38;;;;;;;35.47;23.75;;;;;;;21.94;47.82;99611.66;5090053;28;20961;-28
2022/11/05 12:04:17;;;;;;;35.65;24.40;;;;;;;22.55;46.55;99609.44;5089759;28;20065;-29
2022/11/05 12:07:07;;;;;;;41.78;25.50;;;;;;;22.78;46.21;99621.91;5089498;28;20063;-27
2022/11/05 12:09:53;;;;;;;34.00;23.60;;;;;;;22.26;46.96;99621.56;5089469;28;20754;-28
2022/11/05 12:12:34;;;;;;;31.23;22.10;;;;;;;22.43;46.61;99608.13;5088909;28;20549;-27
2022/11/05 12:15:10;;;;;;;35.20;23.33;;;;;;;22.23;47.62;99617.53;5086155;28;20459;-27